Latest Coastal Weather Observations for Darwin

IDD60701

Issued at 12:25 pm CST Monday 21 April 2014 (issued every 10 minutes, with the page automatically refreshed every 10 minutes)

About coastal observations | Map of coastal stations | Coastal observations for NT | Marine services | Other Formats
Station Details ID: 014015 Name: DARWIN AIRPORT Lat: -12.42 Lon: 130.89 Height: 30.4 m
Data from the previous 72 hours. | See also: Recent months at Darwin
Date/Time
CST
Temp

°C
Wind Pressure Rain
since 9am
mm
Weather Cloud Vis
km
Sea
Height
m
Swell
Dir
 
Speed
knots
Gust
knots
hPa Trend Height
m
Period
s
Dir
21/12:00pm 31.3 E 16 21 1010.2 R 0.0 Fine Partly cloudy 30 - - - -
21/11:30am 31.1 E 18 23 1010.7 - 0.0 - - 10 - - - -
21/11:00am 30.7 E 16 21 1011.0 - 0.0 - - 10 - - - -
21/10:30am 30.0 E 14 17 1011.2 - 0.0 - - 10 - - - -
21/10:00am 29.0 E 13 18 1011.2 - 0.0 - - 10 - - - -
21/09:30am 28.4 E 12 15 1011.0 - 0.0 - - 10 - - - -
21/09:00am 27.0 ESE 8 10 1010.6 S 0.2 Fine Mostly cloudy 30 - - - -
21/08:30am 26.3 SE 9 11 1010.9 - 0.2 - - 10 - - - -
21/08:00am 25.1 SE 7 9 1010.8 - 0.2 - - 10 - - - -
21/07:30am 24.7 SE 7 8 1010.4 - 0.2 - - 10 - - - -
21/07:00am 24.5 ESE 7 8 1010.1 - 0.2 - - 10 - - - -
21/06:30am 24.6 ESE 6 8 1009.8 - 0.2 - - 10 - - - -
21/06:00am 24.7 ESE 6 7 1009.1 F 0.2 Fine Partly cloudy 30 - - - -
21/05:30am 24.6 SE 6 7 1009.3 - 0.2 - - 10 - - - -
21/05:00am 24.4 ESE 5 6 1009.1 - 0.2 - - 10 - - - -
21/04:30am 24.5 ESE 5 6 1009.2 - 0.2 - - 10 - - - -
21/04:00am 24.5 SE 5 5 1009.4 - 0.2 - - 10 - - - -
21/03:30am 25.1 S 4 5 1009.4 - 0.2 - - 10 - - - -
21/03:00am 25.6 ESE 6 8 1009.0 F 0.2 Fine Partly cloudy 30 - - - -
21/02:30am 25.6 E 6 7 1009.5 - 0.2 - - 10 - - - -
21/02:00am 25.9 ESE 5 6 1009.8 - 0.2 - - 10 - - - -
21/01:30am 26.1 ESE 5 6 1009.9 - 0.2 - - 10 - - - -
21/01:00am 26.1 E 5 6 1010.2 - 0.2 - Partly cloudy 10 - - - -
21/12:30am 26.7 E 7 9 1010.5 - 0.2 - Mostly clear 10 - - - -
21/12:00am 26.9 ENE 10 16 1010.4 R 0.2 Fine Mostly cloudy 30 - - - -
 
Date/Time
CST
Temp

°C
Wind Pressure Rain
since 9am
mm
Weather Cloud Vis
km
Sea
Height
m
Swell
Dir
 
Speed
knots
Gust
knots
hPa Trend Height
m
Period
s
Dir
20/11:30pm 27.1 ENE 13 16 1010.7 - 0.2 - Mostly clear 10 - - - -
20/11:00pm 26.3 NE 3 4 1010.1 - 0.2 - Mostly clear 10 - - - -
20/10:30pm 26.4 NE 3 3 1010.1 - 0.2 - Mostly clear 10 - - - -
20/10:00pm 26.6 ENE 4 5 1010.4 - 0.2 - Mostly clear 10 - - - -
20/09:30pm 27.1 NE 2 3 1010.2 - 0.2 - Mostly clear 10 - - - -
20/09:00pm 27.4 NNE 5 7 1009.7 F 0.2 Lightning Mostly cloudy 30 - - - -
20/08:30pm 27.9 NNE 6 7 1009.9 - 0.2 - Mostly clear 10 - - - -
20/08:00pm 28.4 NNE 5 7 1009.6 - 0.2 - Mostly clear 10 - - - -
20/07:30pm 28.9 N 5 7 1009.3 - 0.2 - Mostly clear 10 - - - -
20/07:00pm 29.1 NNE 5 8 1009.2 - 0.2 - Mostly clear 10 - - - -
20/06:30pm 29.9 NNE 7 8 1008.8 - 0.2 - Mostly clear 10 - - - -
20/06:00pm 31.3 E 7 8 1008.1 R 0.2 Fine Mostly cloudy 30 - - - -
20/05:30pm 31.8 E 8 10 1008.2 - 0.2 - Mostly clear 10 - - - -
20/05:00pm 32.2 E 9 13 1007.8 - 0.2 - Mostly clear 10 - - - -
20/04:30pm 32.3 E 11 17 1007.6 - 0.2 - Mostly clear 10 - - - -
20/04:00pm 32.4 E 10 16 1007.5 - 0.2 - Mostly clear 10 - - - -
20/03:30pm 32.6 E 13 17 1007.5 - 0.2 - Mostly clear 10 - - - -
20/03:00pm 32.1 E 12 16 1007.4 S 0.2 Fine Mostly cloudy 30 - - - -
20/02:30pm 32.0 E 10 15 1008.0 - 0.2 - Mostly clear 10 - - - -
20/02:00pm 31.9 E 14 18 1008.3 - 0.2 - Mostly clear 10 - - - -
20/01:30pm 31.5 E 11 16 1008.9 - 0.2 - Mostly clear 10 - - - -
20/01:00pm 31.5 ESE 11 16 1009.2 - 0.2 - Mostly clear 10 - - - -
20/12:30pm 31.1 E 12 16 1009.5 - 0.2 - Mostly clear 10 - - - -
20/12:00pm 30.3 E 12 16 1009.7 F 0.2 Fine Mostly cloudy 30 - - - -
20/11:30am 29.7 E 13 18 1010.5 - 0.2 - Mostly clear 10 - - - -
20/11:00am 29.9 E 16 20 1011.0 - 0.2 - Mostly clear 10 - - - -
20/10:30am 29.3 E 15 19 1011.2 - 0.2 - - 10 - - - -
20/10:00am 28.8 ESE 14 17 1011.2 - 0.2 - - 10 - - - -
20/09:30am 28.0 ESE 11 15 1011.1 - 0.2 - - 10 - - - -
20/09:00am 26.8 ESE 10 13 1010.6 S 9.0 Fine Partly cloudy 30 - - - -
20/08:30am 25.8 SE 9 12 1010.7 - 9.0 - - 10 - - - -
20/08:00am 24.7 SE 9 14 1010.6 - 9.0 - - 10 - - - -
20/07:30am 24.1 ESE 8 11 1010.2 - 9.0 - Partly cloudy 10 - - - -
20/07:00am 23.6 ESE 8 10 1009.8 - 9.0 - Partly cloudy 10 - - - -
20/06:30am 23.4 SE 6 7 1009.7 - 9.0 - - 10 - - - -
20/06:00am 23.2 ESE 7 8 1009.1 R 9.0 Fine Mostly cloudy 30 - - - -
20/05:30am 23.2 ESE 7 8 1009.1 - 9.0 - - 10 - - - -
20/05:00am 23.2 ESE 5 7 1009.0 - 9.0 - - 10 - - - -
20/04:30am 23.2 SE 7 8 1009.1 - 9.0 - - 10 - - - -
20/04:00am 23.5 SE 9 11 1009.0 - 9.0 - - 10 - - - -
20/03:30am 23.7 SSE 8 11 1008.9 - 9.0 - - 10 - - - -
20/03:00am 23.8 SE 9 11 1008.8 F 9.0 Fine Mostly cloudy 30 - - - -
20/02:30am 23.8 SE 9 11 1009.3 - 9.0 - Partly cloudy 10 - - - -
20/02:00am 23.7 SE 7 8 1009.7 - 9.0 - - 10 - - - -
20/01:30am 23.6 SE 6 8 1010.0 - 9.0 - - 10 - - - -
20/01:00am 24.1 E 6 7 1010.5 - 9.0 - - 10 - - - -
20/12:30am 24.1 E 6 7 1010.7 - 9.0 - Partly cloudy 10 - - - -
20/12:00am 24.4 E 8 9 1010.8 S 9.0 Fine Mostly cloudy 30 - - - -
 
Date/Time
CST
Temp

°C
Wind Pressure Rain
since 9am
mm
Weather Cloud Vis
km
Sea
Height
m
Swell
Dir
 
Speed
knots
Gust
knots
hPa Trend Height
m
Period
s
Dir
19/11:30pm 24.8 E 11 14 1011.2 - 9.0 - Partly cloudy 10 - - - -
19/11:00pm 25.2 E 12 16 1011.6 - 9.0 - Partly cloudy 10 - - - -
19/10:30pm 25.6 E 14 19 1011.5 - 9.0 - - 10 - - - -
19/10:00pm 25.4 E 14 16 1011.4 - 9.0 - Mostly clear 10 - - - -
19/09:30pm 25.5 ENE 12 16 1011.1 - 9.0 - - 10 - - - -
19/09:00pm 25.2 ENE 11 13 1010.6 R 9.0 Fine Mostly cloudy 30 - - - -
19/08:30pm 25.2 ENE 12 16 1010.7 - 9.0 - Partly cloudy 10 - - - -
19/08:00pm 25.5 NE 12 16 1010.4 - 9.0 - Mostly clear 10 - - - -
19/07:30pm 25.2 NE 10 13 1010.0 - 9.0 - Mostly clear 10 - - - -
19/07:00pm 24.6 NE 6 8 1009.1 - 9.0 - Mostly clear 10 - - - -
19/06:38pm 24.0 ENE 11 14 1008.8 - 9.0 Rain Mostly clear 9 - - - -
19/06:30pm 23.9 NE 15 20 1009.1 - 8.6 Rain Mostly clear 5 - - - -
19/06:24pm 24.0 ENE 18 20 1009.0 - 8.4 Showers Mostly clear 3 - - - -
19/06:17pm 23.9 ESE 22 32 1009.1 - 6.8 Showers Mostly clear 1 - - - -
19/06:10pm 25.0 ESE 21 27 1009.4 - 2.0 Showers Mostly clear 1 - - - -
19/06:06pm 27.7 NE 12 19 1009.0 - 0.2 Showers Partly cloudy 2 - - - -
19/06:00pm 30.2 NNE 11 14 1008.3 R 0.2 Distant precip. Mostly cloudy 20 - - - -
19/05:30pm 30.9 NNE 11 15 1007.8 - 0.2 - Mostly clear 10 - - - -
19/05:00pm 32.0 NNE 10 12 1007.6 - 0.2 - Mostly clear 10 - - - -
19/04:30pm 32.7 NNE 10 15 1007.4 - 0.2 - Mostly clear 10 - - - -
19/04:00pm 32.4 E 9 11 1007.4 - 0.2 - Mostly clear 10 - - - -
19/03:30pm 33.0 ENE 10 14 1007.4 - 0.2 - Mostly clear 10 - - - -
19/03:00pm 32.6 ENE 12 17 1007.1 F 0.2 Fine Mostly clear 30 - - - -
19/02:30pm 32.7 ENE 9 12 1007.8 - 0.2 - Mostly clear 10 - - - -
19/02:00pm 32.4 E 11 16 1008.2 - 0.2 - Mostly clear 10 - - - -
19/01:30pm 32.0 ENE 15 18 1008.6 - 0.2 - Mostly clear 10 - - - -
19/01:00pm 31.7 E 11 14 1009.2 - 0.2 - Mostly clear 10 - - - -
19/12:30pm 31.1 ENE 11 16 1009.7 - 0.2 - Mostly clear 10 - - - -
19/12:00pm 30.5 E 14 18 1010.0 F 0.2 Fine Mostly clear 30 - - - -
19/11:30am 29.9 E 15 18 1011.0 - 0.2 - Mostly clear 10 - - - -
19/11:00am 29.4 E 12 15 1011.5 - 0.2 - Mostly clear 10 - - - -
19/10:30am 29.1 E 11 15 1011.7 - 0.2 - Mostly clear 10 - - - -
19/10:00am 28.7 E 11 14 1011.7 - 0.2 - Mostly clear 10 - - - -
19/09:30am 27.6 E 11 14 1011.7 - 0.0 - Mostly clear 10 - - - -
19/09:00am 26.9 E 9 12 1011.3 F 3.4 Fine Mostly clear 30 - - - -
19/08:30am 26.0 ESE 9 13 1011.6 - 3.4 - Mostly clear 10 - - - -
19/08:00am 25.1 ESE 8 10 1011.6 - 3.4 - Mostly clear 10 - - - -
19/07:30am 24.5 E 7 9 1011.4 - 3.4 - Mostly clear 10 - - - -
19/07:00am 23.6 ESE 5 8 1011.2 - 3.4 - Mostly clear 10 - - - -
19/06:30am 23.6 ESE 6 7 1011.0 - 3.4 - Mostly clear 10 - - - -
19/06:00am 23.7 ESE 7 8 1010.6 R 3.4 Fine Partly cloudy 30 - - - -
19/05:30am 23.7 SE 6 8 1010.6 - 3.4 - Mostly clear 10 - - - -
19/05:00am 24.0 ESE 7 8 1010.4 - 3.4 - Mostly clear 10 - - - -
19/04:30am 24.0 ESE 6 7 1010.2 - 3.4 - Mostly clear 10 - - - -
19/04:00am 24.0 ESE 7 8 1010.2 - 3.4 - Mostly clear 10 - - - -
19/03:30am 24.2 ESE 3 4 1010.5 - 3.4 - Mostly clear 10 - - - -
19/03:00am 24.2 E 5 6 1010.2 F 3.4 Fine Mostly cloudy 30 - - - -
19/02:30am 24.3 E 6 8 1010.9 - 3.4 - Mostly clear 10 - - - -
19/02:00am 24.3 E 9 11 1010.9 - 3.4 - Mostly clear 10 - - - -
19/01:30am 24.4 E 9 12 1011.0 - 3.4 - Mostly clear 10 - - - -
19/01:00am 24.5 ESE 10 12 1011.4 - 3.4 - Mostly clear 10 - - - -
19/12:30am 24.6 ESE 8 10 1011.8 - 3.4 - Mostly clear 10 - - - -
19/12:00am 24.5 E 9 11 1011.4 F 3.4 Fine Mostly cloudy 30 - - - -
 
Date/Time
CST
Temp

°C
Wind Pressure Rain
since 9am
mm
Weather Cloud Vis
km
Sea
Height
m
Swell
Dir
 
Speed
knots
Gust
knots
hPa Trend Height
m
Period
s
Dir
18/11:30pm 24.5 ESE 10 14 1012.1 - 3.4 - Mostly clear 10 - - - -
18/11:00pm 24.6 E 12 15 1012.2 - 3.4 - Mostly clear 10 - - - -
18/10:30pm 24.7 E 12 16 1012.0 - 3.4 - Mostly clear 10 - - - -
18/10:00pm 24.6 SE 9 13 1012.0 - 3.4 - Mostly clear 10 - - - -
18/09:30pm 24.9 ESE 9 12 1011.9 - 3.4 - Mostly clear 10 - - - -
18/09:00pm 25.1 SE 13 16 1012.0 R 3.4 Distant precip. Mostly cloudy 10 - - - -
18/08:30pm 25.9 E 17 20 1012.6 - 3.4 - Mostly clear 10 - - - -
18/08:00pm 25.7 ENE 9 14 1012.0 - 3.4 - Mostly clear 10 - - - -
18/07:30pm 25.4 ENE 5 6 1010.7 - 3.4 - Mostly clear 10 - - - -
18/07:00pm 25.2 ENE 6 7 1010.5 - 3.4 - Mostly clear 10 - - - -
18/06:30pm 25.3 NNE 6 8 1010.3 - 3.4 - Mostly clear 10 - - - -
18/06:00pm 25.4 NE 9 11 1009.6 R 3.4 Rain Mostly cloudy 25 - - - -
18/05:30pm 25.5 ENE 9 11 1009.4 - 3.4 - Mostly clear 10 - - - -
18/05:00pm 25.3 E 15 20 1009.7 - 3.4 Showers Partly cloudy 9 - - - -
18/04:45pm 26.2 ESE 11 15 1010.0 - 1.8 Showers Partly cloudy 4 - - - -
18/04:30pm 26.5 E 12 18 1009.4 - 1.8 Showers Mostly clear 8 - - - -
18/04:00pm 26.2 E 9 11 1008.7 - 1.6 - Mostly clear 10 - - - -
18/03:51pm 25.8 ESE 19 23 1008.8 - 1.6 Thunderstorm Mostly clear 4 - - - -
18/03:47pm 25.4 ESE 19 22 1009.0 - 1.6 Thunderstorm Mostly clear 3 - - - -
18/03:40pm 27.3 E 21 25 1009.0 - 0.2 Thunderstorm Mostly clear 1 - - - -
18/03:30pm 30.2 NE 11 15 1008.7 - 0.2 Thunder Mostly clear 10 - - - -
18/03:00pm 31.3 NE 10 12 1008.2 F 0.2 Distant precip. Mostly cloudy 30 - - - -
18/02:30pm 31.2 E 7 9 1008.8 - 0.2 - Partly cloudy 10 - - - -
18/02:00pm 31.0 E 8 12 1009.3 - 0.2 - Partly cloudy 10 - - - -
18/01:30pm 31.5 E 7 13 1009.6 - 0.2 - Partly cloudy 10 - - - -
18/01:00pm 30.8 E 8 12 1009.8 - 0.2 - Mostly clear 10 - - - -
18/12:30pm 30.1 E 10 15 1010.4 - 0.2 - Mostly clear 10 - - - -

Other Formats:

Comma delimited format used in spreadsheet applications
http://www.bom.gov.au/fwo/IDD60701/IDD60701.94120.axf

JavaScript Object Notation format (JSON) in row-major order
http://www.bom.gov.au/fwo/IDD60701/IDD60701.94120.json